Portada
METAR-TAF:

METAR-TAF

Aeroports :

Miri, Malàisia

latitud: 04-20N, longitud: 113-59E, altitud: 17 m

Observació

L'informe es va fer fa 44 minuts, a les 15:00 UTC
Vent 4 kt del Est
Temperatura 25°C
Humitat 94%
Pressió 1012 hPa
Visibilitat 10 km o més
Escasses núvols a una alçada de 1600 ft
Cel ennuvolat a una alçada de 15000 ft

METAR: WBGR 181500Z 08004KT 9999 FEW016 BKN150 25/24 Q1012

Hora: 23:44 (15:44 UTC)

Pronòstic

L'informe es va fer fa 4 hores i 44 minuts, a les 11:00 UTC
Pronòstic vàlid del 18 a les 12 UTC al 19 a les 12 UTC
Vent 5 kt del Est/Nord-Est
Visibilitat 10 km o més
Escasses núvols a una alçada de 1600 ft

TAF: WBGR 181100Z 1812/1912 07005KT 9999 FEW016

Observacions i pronòstics meteorològics de més de 4000 aeroports (METAR i TAF).

Les estacions disponibles són els punts grocs i vermells al mapa.

Posi el ratolí al punt desitjat per veure el nom de l'estació.

Feu clic per veure les observacions i els pronòstics meteorològics.

Per canviar el mapa: feu clic els botons verds amb una creu de color negre per apropar; al botó verd amb un guió per allunyar la imatge; o en les fletxes verdes per a mapes adjacents.


METAR-TAF: